sensor_id;sensor_type;location;lat;lon;timestamp;temperature;humidity
16503;DHT22;53067;48.114;11.694;2022-07-24T00:02:11;24.10;61.40
16503;DHT22;53067;48.114;11.694;2022-07-24T00:04:38;24.00;61.40
16503;DHT22;53067;48.114;11.694;2022-07-24T00:07:06;24.00;61.40
16503;DHT22;53067;48.114;11.694;2022-07-24T00:09:33;24.00;61.50
16503;DHT22;53067;48.114;11.694;2022-07-24T00:12:01;24.00;61.60
16503;DHT22;53067;48.114;11.694;2022-07-24T00:14:28;24.00;61.40
16503;DHT22;53067;48.114;11.694;2022-07-24T00:16:56;24.00;61.50
16503;DHT22;53067;48.114;11.694;2022-07-24T00:19:24;24.00;61.50
16503;DHT22;53067;48.114;11.694;2022-07-24T00:21:51;24.00;61.50
16503;DHT22;53067;48.114;11.694;2022-07-24T00:24:19;24.00;61.50
16503;DHT22;53067;48.114;11.694;2022-07-24T00:26:47;23.90;61.50
16503;DHT22;53067;48.114;11.694;2022-07-24T00:29:14;23.90;62.60
16503;DHT22;53067;48.114;11.694;2022-07-24T00:31:42;23.90;61.80
16503;DHT22;53067;48.114;11.694;2022-07-24T00:34:09;23.90;61.90
16503;DHT22;53067;48.114;11.694;2022-07-24T00:36:37;23.90;62.10
16503;DHT22;53067;48.114;11.694;2022-07-24T00:39:06;23.80;62.10
16503;DHT22;53067;48.114;11.694;2022-07-24T00:41:33;23.80;61.90
16503;DHT22;53067;48.114;11.694;2022-07-24T00:44:06;23.80;62.20
16503;DHT22;53067;48.114;11.694;2022-07-24T00:46:36;23.80;62.20
16503;DHT22;53067;48.114;11.694;2022-07-24T00:49:05;23.80;62.20
16503;DHT22;53067;48.114;11.694;2022-07-24T00:51:34;23.80;62.40
16503;DHT22;53067;48.114;11.694;2022-07-24T00:54:04;23.80;62.10
16503;DHT22;53067;48.114;11.694;2022-07-24T00:56:32;23.80;62.30
16503;DHT22;53067;48.114;11.694;2022-07-24T00:59:00;23.70;62.30
16503;DHT22;53067;48.114;11.694;2022-07-24T01:01:29;23.70;62.40
16503;DHT22;53067;48.114;11.694;2022-07-24T01:03:57;23.70;62.40
16503;DHT22;53067;48.114;11.694;2022-07-24T01:06:25;23.70;62.40
16503;DHT22;53067;48.114;11.694;2022-07-24T01:08:53;23.70;62.50
16503;DHT22;53067;48.114;11.694;2022-07-24T01:11:21;23.70;62.50
16503;DHT22;53067;48.114;11.694;2022-07-24T01:13:50;23.70;62.50
16503;DHT22;53067;48.114;11.694;2022-07-24T01:16:18;23.70;62.50
16503;DHT22;53067;48.114;11.694;2022-07-24T01:18:45;23.70;62.50
16503;DHT22;53067;48.114;11.694;2022-07-24T01:21:13;23.70;62.50
16503;DHT22;53067;48.114;11.694;2022-07-24T01:23:40;23.70;62.50
16503;DHT22;53067;48.114;11.694;2022-07-24T01:26:08;23.70;62.50
16503;DHT22;53067;48.114;11.694;2022-07-24T01:28:37;23.70;62.60
16503;DHT22;53067;48.114;11.694;2022-07-24T01:31:04;23.70;62.40
16503;DHT22;53067;48.114;11.694;2022-07-24T01:33:32;23.70;62.40
16503;DHT22;53067;48.114;11.694;2022-07-24T01:36:00;23.60;62.40
16503;DHT22;53067;48.114;11.694;2022-07-24T01:38:27;23.60;62.40
16503;DHT22;53067;48.114;11.694;2022-07-24T01:40:55;23.60;62.40
16503;DHT22;53067;48.114;11.694;2022-07-24T01:43:22;23.70;62.40
16503;DHT22;53067;48.114;11.694;2022-07-24T01:45:50;23.60;62.40
16503;DHT22;53067;48.114;11.694;2022-07-24T01:48:17;23.60;62.50
16503;DHT22;53067;48.114;11.694;2022-07-24T01:50:45;23.70;62.60
16503;DHT22;53067;48.114;11.694;2022-07-24T01:53:12;23.70;62.80
16503;DHT22;53067;48.114;11.694;2022-07-24T01:55:40;23.60;62.60
16503;DHT22;53067;48.114;11.694;2022-07-24T01:58:08;23.60;62.60
16503;DHT22;53067;48.114;11.694;2022-07-24T02:00:35;23.60;62.50
16503;DHT22;53067;48.114;11.694;2022-07-24T02:03:03;23.60;62.60
16503;DHT22;53067;48.114;11.694;2022-07-24T02:05:31;23.60;62.70
16503;DHT22;53067;48.114;11.694;2022-07-24T02:08:00;23.60;62.80
16503;DHT22;53067;48.114;11.694;2022-07-24T02:10:28;23.70;63.00
16503;DHT22;53067;48.114;11.694;2022-07-24T02:12:57;23.60;62.90
16503;DHT22;53067;48.114;11.694;2022-07-24T02:15:25;23.60;63.10
16503;DHT22;53067;48.114;11.694;2022-07-24T02:17:55;23.60;63.00
16503;DHT22;53067;48.114;11.694;2022-07-24T02:20:24;23.60;63.30
16503;DHT22;53067;48.114;11.694;2022-07-24T02:22:52;23.50;63.10
16503;DHT22;53067;48.114;11.694;2022-07-24T02:25:20;23.50;63.20
16503;DHT22;53067;48.114;11.694;2022-07-24T02:27:48;23.50;63.30
16503;DHT22;53067;48.114;11.694;2022-07-24T02:30:18;23.50;63.40
16503;DHT22;53067;48.114;11.694;2022-07-24T02:32:45;23.50;63.50
16503;DHT22;53067;48.114;11.694;2022-07-24T02:35:13;23.50;63.70
16503;DHT22;53067;48.114;11.694;2022-07-24T02:37:43;23.40;63.60
16503;DHT22;53067;48.114;11.694;2022-07-24T02:40:12;23.30;63.90
16503;DHT22;53067;48.114;11.694;2022-07-24T02:42:40;23.30;64.30
16503;DHT22;53067;48.114;11.694;2022-07-24T02:45:18;23.20;64.60
16503;DHT22;53067;48.114;11.694;2022-07-24T02:47:56;23.10;64.60
16503;DHT22;53067;48.114;11.694;2022-07-24T02:50:28;23.10;64.70
16503;DHT22;53067;48.114;11.694;2022-07-24T02:52:54;23.10;64.60
16503;DHT22;53067;48.114;11.694;2022-07-24T02:55:22;23.10;64.80
16503;DHT22;53067;48.114;11.694;2022-07-24T02:57:49;23.00;64.80
16503;DHT22;53067;48.114;11.694;2022-07-24T03:00:18;23.00;64.70
16503;DHT22;53067;48.114;11.694;2022-07-24T03:02:46;23.00;64.70
16503;DHT22;53067;48.114;11.694;2022-07-24T03:05:14;22.90;64.90
16503;DHT22;53067;48.114;11.694;2022-07-24T03:07:42;22.90;65.00
16503;DHT22;53067;48.114;11.694;2022-07-24T03:10:11;22.90;65.10
16503;DHT22;53067;48.114;11.694;2022-07-24T03:12:39;22.90;65.10
16503;DHT22;53067;48.114;11.694;2022-07-24T03:15:08;22.90;65.10
16503;DHT22;53067;48.114;11.694;2022-07-24T03:17:36;22.90;65.20
16503;DHT22;53067;48.114;11.694;2022-07-24T03:20:05;22.80;65.20
16503;DHT22;53067;48.114;11.694;2022-07-24T03:22:33;22.80;65.30
16503;DHT22;53067;48.114;11.694;2022-07-24T03:25:00;22.80;65.40
16503;DHT22;53067;48.114;11.694;2022-07-24T03:27:28;22.70;65.40
16503;DHT22;53067;48.114;11.694;2022-07-24T03:29:55;22.70;65.60
16503;DHT22;53067;48.114;11.694;2022-07-24T03:32:23;22.70;65.60
16503;DHT22;53067;48.114;11.694;2022-07-24T03:34:50;22.60;65.90
16503;DHT22;53067;48.114;11.694;2022-07-24T03:37:18;22.60;66.00
16503;DHT22;53067;48.114;11.694;2022-07-24T03:39:45;22.60;66.10
16503;DHT22;53067;48.114;11.694;2022-07-24T03:42:13;22.50;66.20
16503;DHT22;53067;48.114;11.694;2022-07-24T03:44:41;22.50;66.30
16503;DHT22;53067;48.114;11.694;2022-07-24T03:47:08;22.40;66.30
16503;DHT22;53067;48.114;11.694;2022-07-24T03:49:36;22.40;66.50
16503;DHT22;53067;48.114;11.694;2022-07-24T03:52:04;22.40;66.60
16503;DHT22;53067;48.114;11.694;2022-07-24T03:54:31;22.40;66.80
16503;DHT22;53067;48.114;11.694;2022-07-24T03:56:59;22.30;66.80
16503;DHT22;53067;48.114;11.694;2022-07-24T03:59:27;22.30;67.00
16503;DHT22;53067;48.114;11.694;2022-07-24T04:01:54;22.30;67.20
16503;DHT22;53067;48.114;11.694;2022-07-24T04:04:21;22.30;67.30
16503;DHT22;53067;48.114;11.694;2022-07-24T04:06:49;22.30;67.30
16503;DHT22;53067;48.114;11.694;2022-07-24T04:09:22;22.30;67.50
16503;DHT22;53067;48.114;11.694;2022-07-24T04:11:49;22.20;67.30
16503;DHT22;53067;48.114;11.694;2022-07-24T04:14:17;22.20;67.70
16503;DHT22;53067;48.114;11.694;2022-07-24T04:16:44;22.10;67.60
16503;DHT22;53067;48.114;11.694;2022-07-24T04:19:13;22.10;67.80
16503;DHT22;53067;48.114;11.694;2022-07-24T04:21:41;22.10;67.90
16503;DHT22;53067;48.114;11.694;2022-07-24T04:24:08;22.10;67.90
16503;DHT22;53067;48.114;11.694;2022-07-24T04:26:36;22.10;67.80
16503;DHT22;53067;48.114;11.694;2022-07-24T04:29:03;22.10;68.60
16503;DHT22;53067;48.114;11.694;2022-07-24T04:31:31;22.10;68.00
16503;DHT22;53067;48.114;11.694;2022-07-24T04:33:59;22.10;68.10
16503;DHT22;53067;48.114;11.694;2022-07-24T04:36:26;22.10;68.20
16503;DHT22;53067;48.114;11.694;2022-07-24T04:38:54;22.10;68.00
16503;DHT22;53067;48.114;11.694;2022-07-24T04:41:21;22.10;68.10
16503;DHT22;53067;48.114;11.694;2022-07-24T04:43:49;22.10;68.30
16503;DHT22;53067;48.114;11.694;2022-07-24T04:46:17;22.00;68.30
16503;DHT22;53067;48.114;11.694;2022-07-24T04:48:45;22.10;68.40
16503;DHT22;53067;48.114;11.694;2022-07-24T04:51:12;22.10;68.40
16503;DHT22;53067;48.114;11.694;2022-07-24T04:53:40;22.10;68.40
16503;DHT22;53067;48.114;11.694;2022-07-24T04:56:07;22.10;68.40
16503;DHT22;53067;48.114;11.694;2022-07-24T04:58:35;22.10;68.50
16503;DHT22;53067;48.114;11.694;2022-07-24T05:01:03;22.10;68.30
16503;DHT22;53067;48.114;11.694;2022-07-24T05:03:30;22.20;68.30
16503;DHT22;53067;48.114;11.694;2022-07-24T05:05:58;22.20;68.50
16503;DHT22;53067;48.114;11.694;2022-07-24T05:08:25;22.20;68.50
16503;DHT22;53067;48.114;11.694;2022-07-24T05:10:53;22.30;68.50
16503;DHT22;53067;48.114;11.694;2022-07-24T05:13:20;22.30;68.30
16503;DHT22;53067;48.114;11.694;2022-07-24T05:15:48;22.40;68.10
16503;DHT22;53067;48.114;11.694;2022-07-24T05:18:16;22.40;68.00
16503;DHT22;53067;48.114;11.694;2022-07-24T05:20:43;22.50;67.90
16503;DHT22;53067;48.114;11.694;2022-07-24T05:23:11;22.60;67.90
16503;DHT22;53067;48.114;11.694;2022-07-24T05:25:38;22.60;67.60
16503;DHT22;53067;48.114;11.694;2022-07-24T05:28:06;22.60;68.30
16503;DHT22;53067;48.114;11.694;2022-07-24T05:30:33;22.70;67.60
16503;DHT22;53067;48.114;11.694;2022-07-24T05:33:01;22.70;67.30
16503;DHT22;53067;48.114;11.694;2022-07-24T05:35:28;22.80;67.40
16503;DHT22;53067;48.114;11.694;2022-07-24T05:37:56;22.90;67.10
16503;DHT22;53067;48.114;11.694;2022-07-24T05:40:24;22.90;66.90
16503;DHT22;53067;48.114;11.694;2022-07-24T05:42:51;22.90;66.80
16503;DHT22;53067;48.114;11.694;2022-07-24T05:45:19;22.90;66.90
16503;DHT22;53067;48.114;11.694;2022-07-24T05:47:46;22.90;67.00
16503;DHT22;53067;48.114;11.694;2022-07-24T05:50:15;22.90;66.90
16503;DHT22;53067;48.114;11.694;2022-07-24T05:52:42;23.00;66.80
16503;DHT22;53067;48.114;11.694;2022-07-24T05:55:10;23.10;66.80
16503;DHT22;53067;48.114;11.694;2022-07-24T05:57:37;23.10;66.40
16503;DHT22;53067;48.114;11.694;2022-07-24T06:00:06;23.10;66.40
16503;DHT22;53067;48.114;11.694;2022-07-24T06:02:34;23.10;66.40
16503;DHT22;53067;48.114;11.694;2022-07-24T06:05:02;23.20;66.40
16503;DHT22;53067;48.114;11.694;2022-07-24T06:07:30;23.30;66.30
16503;DHT22;53067;48.114;11.694;2022-07-24T06:09:57;23.30;66.10
16503;DHT22;53067;48.114;11.694;2022-07-24T06:12:25;23.30;65.90
16503;DHT22;53067;48.114;11.694;2022-07-24T06:14:52;23.40;65.70
16503;DHT22;53067;48.114;11.694;2022-07-24T06:17:20;23.40;65.50
16503;DHT22;53067;48.114;11.694;2022-07-24T06:19:47;23.50;65.00
16503;DHT22;53067;48.114;11.694;2022-07-24T06:22:15;23.50;64.20
16503;DHT22;53067;48.114;11.694;2022-07-24T06:24:42;23.60;64.00
16503;DHT22;53067;48.114;11.694;2022-07-24T06:27:10;23.70;63.30
16503;DHT22;53067;48.114;11.694;2022-07-24T06:29:37;23.70;62.70
16503;DHT22;53067;48.114;11.694;2022-07-24T06:32:05;23.80;62.90
16503;DHT22;53067;48.114;11.694;2022-07-24T06:34:33;23.90;62.30
16503;DHT22;53067;48.114;11.694;2022-07-24T06:37:02;23.90;61.60
16503;DHT22;53067;48.114;11.694;2022-07-24T06:39:30;24.00;61.50
16503;DHT22;53067;48.114;11.694;2022-07-24T06:41:57;24.00;61.00
16503;DHT22;53067;48.114;11.694;2022-07-24T06:44:25;24.00;60.80
16503;DHT22;53067;48.114;11.694;2022-07-24T06:46:52;24.10;60.80
16503;DHT22;53067;48.114;11.694;2022-07-24T06:49:20;24.20;60.20
16503;DHT22;53067;48.114;11.694;2022-07-24T06:51:48;24.20;59.90
16503;DHT22;53067;48.114;11.694;2022-07-24T06:54:15;24.30;59.80
16503;DHT22;53067;48.114;11.694;2022-07-24T06:56:43;24.40;59.50
16503;DHT22;53067;48.114;11.694;2022-07-24T06:59:10;24.40;59.50
16503;DHT22;53067;48.114;11.694;2022-07-24T07:01:38;24.50;59.40
16503;DHT22;53067;48.114;11.694;2022-07-24T07:04:18;24.50;59.00
16503;DHT22;53067;48.114;11.694;2022-07-24T07:06:45;24.60;58.50
16503;DHT22;53067;48.114;11.694;2022-07-24T07:09:13;24.70;58.10
16503;DHT22;53067;48.114;11.694;2022-07-24T07:11:40;24.70;58.00
16503;DHT22;53067;48.114;11.694;2022-07-24T07:14:08;24.80;57.70
16503;DHT22;53067;48.114;11.694;2022-07-24T07:16:35;24.80;57.40
16503;DHT22;53067;48.114;11.694;2022-07-24T07:19:03;24.90;57.00
16503;DHT22;53067;48.114;11.694;2022-07-24T07:21:31;25.00;57.00
16503;DHT22;53067;48.114;11.694;2022-07-24T07:23:58;25.00;56.60
16503;DHT22;53067;48.114;11.694;2022-07-24T07:26:26;25.10;56.20
16503;DHT22;53067;48.114;11.694;2022-07-24T07:28:54;25.20;55.90
16503;DHT22;53067;48.114;11.694;2022-07-24T07:31:21;25.20;55.40
16503;DHT22;53067;48.114;11.694;2022-07-24T07:33:51;25.30;55.60
16503;DHT22;53067;48.114;11.694;2022-07-24T07:36:18;25.40;55.10
16503;DHT22;53067;48.114;11.694;2022-07-24T07:38:46;25.40;54.70
16503;DHT22;53067;48.114;11.694;2022-07-24T07:41:14;25.50;55.10
16503;DHT22;53067;48.114;11.694;2022-07-24T07:43:41;25.50;54.30
16503;DHT22;53067;48.114;11.694;2022-07-24T07:46:09;25.60;53.90
16503;DHT22;53067;48.114;11.694;2022-07-24T07:48:36;25.70;54.20
16503;DHT22;53067;48.114;11.694;2022-07-24T07:51:04;25.80;53.50
16503;DHT22;53067;48.114;11.694;2022-07-24T07:53:32;25.90;53.70
16503;DHT22;53067;48.114;11.694;2022-07-24T07:55:59;26.00;53.40
16503;DHT22;53067;48.114;11.694;2022-07-24T07:58:27;26.10;52.80
16503;DHT22;53067;48.114;11.694;2022-07-24T08:00:55;26.20;52.30
16503;DHT22;53067;48.114;11.694;2022-07-24T08:03:22;26.20;52.00
16503;DHT22;53067;48.114;11.694;2022-07-24T08:05:50;26.30;51.90
16503;DHT22;53067;48.114;11.694;2022-07-24T08:08:18;26.40;51.30
16503;DHT22;53067;48.114;11.694;2022-07-24T08:10:46;26.50;51.10
16503;DHT22;53067;48.114;11.694;2022-07-24T08:13:13;26.50;50.80
16503;DHT22;53067;48.114;11.694;2022-07-24T08:15:41;26.60;50.20
16503;DHT22;53067;48.114;11.694;2022-07-24T08:18:09;26.60;50.20
16503;DHT22;53067;48.114;11.694;2022-07-24T08:20:37;26.70;50.00
16503;DHT22;53067;48.114;11.694;2022-07-24T08:23:04;26.80;50.00
16503;DHT22;53067;48.114;11.694;2022-07-24T08:25:32;26.90;49.80
16503;DHT22;53067;48.114;11.694;2022-07-24T08:27:59;27.00;49.50
16503;DHT22;53067;48.114;11.694;2022-07-24T08:30:27;27.10;48.80
16503;DHT22;53067;48.114;11.694;2022-07-24T08:32:54;27.20;48.80
16503;DHT22;53067;48.114;11.694;2022-07-24T08:35:22;27.20;48.30
16503;DHT22;53067;48.114;11.694;2022-07-24T08:37:50;27.30;48.20
16503;DHT22;53067;48.114;11.694;2022-07-24T08:40:18;27.40;48.20
16503;DHT22;53067;48.114;11.694;2022-07-24T08:42:46;27.50;47.70
16503;DHT22;53067;48.114;11.694;2022-07-24T08:45:13;27.60;47.50
16503;DHT22;53067;48.114;11.694;2022-07-24T08:47:42;27.70;47.20
16503;DHT22;53067;48.114;11.694;2022-07-24T08:50:11;27.80;46.80
16503;DHT22;53067;48.114;11.694;2022-07-24T08:52:38;27.80;46.70
16503;DHT22;53067;48.114;11.694;2022-07-24T08:55:07;27.90;46.70
16503;DHT22;53067;48.114;11.694;2022-07-24T08:57:34;28.00;46.30
16503;DHT22;53067;48.114;11.694;2022-07-24T09:00:06;28.10;46.20
16503;DHT22;53067;48.114;11.694;2022-07-24T09:02:40;28.20;45.90
16503;DHT22;53067;48.114;11.694;2022-07-24T09:08:13;28.40;45.60
16503;DHT22;53067;48.114;11.694;2022-07-24T09:11:01;28.50;45.30
16503;DHT22;53067;48.114;11.694;2022-07-24T09:13:33;28.60;45.10
16503;DHT22;53067;48.114;11.694;2022-07-24T09:16:23;28.60;45.00
16503;DHT22;53067;48.114;11.694;2022-07-24T09:19:08;28.70;44.30
16503;DHT22;53067;48.114;11.694;2022-07-24T09:21:38;28.80;44.20
16503;DHT22;53067;48.114;11.694;2022-07-24T09:24:14;28.80;43.60
16503;DHT22;53067;48.114;11.694;2022-07-24T09:26:54;28.90;43.80
16503;DHT22;53067;48.114;11.694;2022-07-24T09:29:25;29.10;43.80
16503;DHT22;53067;48.114;11.694;2022-07-24T09:32:12;29.20;43.30
16503;DHT22;53067;48.114;11.694;2022-07-24T09:34:42;29.30;43.00
16503;DHT22;53067;48.114;11.694;2022-07-24T09:37:10;29.40;42.90
16503;DHT22;53067;48.114;11.694;2022-07-24T09:42:30;29.30;42.50
16503;DHT22;53067;48.114;11.694;2022-07-24T09:45:02;29.30;43.20
16503;DHT22;53067;48.114;11.694;2022-07-24T09:47:51;29.50;42.60
16503;DHT22;53067;48.114;11.694;2022-07-24T09:50:19;29.70;42.50
16503;DHT22;53067;48.114;11.694;2022-07-24T09:52:48;29.90;42.10
16503;DHT22;53067;48.114;11.694;2022-07-24T09:55:21;30.00;42.30
16503;DHT22;53067;48.114;11.694;2022-07-24T09:57:49;30.00;41.40
16503;DHT22;53067;48.114;11.694;2022-07-24T10:00:17;30.10;41.50
16503;DHT22;53067;48.114;11.694;2022-07-24T10:03:06;30.20;40.60
16503;DHT22;53067;48.114;11.694;2022-07-24T10:05:36;30.20;40.60
16503;DHT22;53067;48.114;11.694;2022-07-24T10:08:06;30.30;40.70
16503;DHT22;53067;48.114;11.694;2022-07-24T10:10:35;30.40;40.00
16503;DHT22;53067;48.114;11.694;2022-07-24T10:13:04;30.40;39.90
16503;DHT22;53067;48.114;11.694;2022-07-24T10:15:33;30.40;39.90
16503;DHT22;53067;48.114;11.694;2022-07-24T10:18:15;30.60;39.70
16503;DHT22;53067;48.114;11.694;2022-07-24T10:23:42;30.70;39.20
16503;DHT22;53067;48.114;11.694;2022-07-24T10:26:07;30.70;38.10
16503;DHT22;53067;48.114;11.694;2022-07-24T10:31:26;30.50;38.90
16503;DHT22;53067;48.114;11.694;2022-07-24T10:33:55;30.50;39.20
16503;DHT22;53067;48.114;11.694;2022-07-24T10:36:29;30.70;39.20
16503;DHT22;53067;48.114;11.694;2022-07-24T10:38:58;30.70;39.00
16503;DHT22;53067;48.114;11.694;2022-07-24T10:41:26;30.70;39.40
16503;DHT22;53067;48.114;11.694;2022-07-24T10:44:12;30.80;39.30
16503;DHT22;53067;48.114;11.694;2022-07-24T10:47:00;30.80;38.70
16503;DHT22;53067;48.114;11.694;2022-07-24T10:49:38;30.80;38.40
16503;DHT22;53067;48.114;11.694;2022-07-24T10:52:05;30.70;38.90
16503;DHT22;53067;48.114;11.694;2022-07-24T10:54:32;30.70;39.10
16503;DHT22;53067;48.114;11.694;2022-07-24T10:57:00;30.70;39.40
16503;DHT22;53067;48.114;11.694;2022-07-24T10:59:36;30.70;39.50
16503;DHT22;53067;48.114;11.694;2022-07-24T11:05:36;30.60;39.00
16503;DHT22;53067;48.114;11.694;2022-07-24T11:10:49;30.70;39.80
16503;DHT22;53067;48.114;11.694;2022-07-24T11:16:17;31.00;39.10
16503;DHT22;53067;48.114;11.694;2022-07-24T11:21:39;31.30;38.00
16503;DHT22;53067;48.114;11.694;2022-07-24T11:24:17;31.30;37.90
16503;DHT22;53067;48.114;11.694;2022-07-24T11:26:55;31.40;38.30
16503;DHT22;53067;48.114;11.694;2022-07-24T11:32:02;31.70;38.60
16503;DHT22;53067;48.114;11.694;2022-07-24T11:34:31;31.90;38.10
16503;DHT22;53067;48.114;11.694;2022-07-24T11:37:00;32.10;37.30
16503;DHT22;53067;48.114;11.694;2022-07-24T11:39:36;32.20;36.70
16503;DHT22;53067;48.114;11.694;2022-07-24T11:42:06;32.30;36.60
16503;DHT22;53067;48.114;11.694;2022-07-24T11:44:43;32.30;36.40
16503;DHT22;53067;48.114;11.694;2022-07-24T11:47:18;32.50;36.30
16503;DHT22;53067;48.114;11.694;2022-07-24T11:52:40;32.70;35.90
16503;DHT22;53067;48.114;11.694;2022-07-24T11:55:12;32.80;35.70
16503;DHT22;53067;48.114;11.694;2022-07-24T11:57:42;32.90;36.00
16503;DHT22;53067;48.114;11.694;2022-07-24T12:00:12;33.00;35.40
16503;DHT22;53067;48.114;11.694;2022-07-24T12:02:45;33.00;35.30
16503;DHT22;53067;48.114;11.694;2022-07-24T12:05:15;32.90;35.00
16503;DHT22;53067;48.114;11.694;2022-07-24T12:07:43;32.80;35.00
16503;DHT22;53067;48.114;11.694;2022-07-24T12:10:10;32.60;35.10
16503;DHT22;53067;48.114;11.694;2022-07-24T12:12:57;32.50;35.20
16503;DHT22;53067;48.114;11.694;2022-07-24T12:15:26;32.40;35.30
16503;DHT22;53067;48.114;11.694;2022-07-24T12:20:30;32.30;35.70
16503;DHT22;53067;48.114;11.694;2022-07-24T12:22:59;32.20;35.70
16503;DHT22;53067;48.114;11.694;2022-07-24T12:25:28;32.30;36.40
16503;DHT22;53067;48.114;11.694;2022-07-24T12:28:08;32.30;36.10
16503;DHT22;53067;48.114;11.694;2022-07-24T12:30:44;32.40;36.00
16503;DHT22;53067;48.114;11.694;2022-07-24T12:35:59;32.60;35.70
16503;DHT22;53067;48.114;11.694;2022-07-24T12:38:35;32.70;35.70
16503;DHT22;53067;48.114;11.694;2022-07-24T12:41:09;32.80;35.10
16503;DHT22;53067;48.114;11.694;2022-07-24T12:43:50;33.00;35.30
16503;DHT22;53067;48.114;11.694;2022-07-24T12:46:34;33.10;34.10
16503;DHT22;53067;48.114;11.694;2022-07-24T12:49:13;33.10;35.00
16503;DHT22;53067;48.114;11.694;2022-07-24T12:54:22;33.40;33.90
16503;DHT22;53067;48.114;11.694;2022-07-24T12:56:52;33.40;33.80
16503;DHT22;53067;48.114;11.694;2022-07-24T12:59:33;33.60;33.90
16503;DHT22;53067;48.114;11.694;2022-07-24T13:02:06;33.70;33.20
16503;DHT22;53067;48.114;11.694;2022-07-24T13:04:49;33.80;33.70
16503;DHT22;53067;48.114;11.694;2022-07-24T13:07:19;33.90;32.60
16503;DHT22;53067;48.114;11.694;2022-07-24T13:09:47;34.00;33.00
16503;DHT22;53067;48.114;11.694;2022-07-24T13:12:15;34.20;32.60
16503;DHT22;53067;48.114;11.694;2022-07-24T13:14:43;34.30;31.40
16503;DHT22;53067;48.114;11.694;2022-07-24T13:17:13;34.30;32.10
16503;DHT22;53067;48.114;11.694;2022-07-24T13:19:43;34.40;32.00
16503;DHT22;53067;48.114;11.694;2022-07-24T13:22:12;34.50;32.20
16503;DHT22;53067;48.114;11.694;2022-07-24T13:24:40;34.60;31.70
16503;DHT22;53067;48.114;11.694;2022-07-24T13:27:10;34.50;31.70
16503;DHT22;53067;48.114;11.694;2022-07-24T13:29:39;34.50;31.40
16503;DHT22;53067;48.114;11.694;2022-07-24T13:32:07;34.30;31.30
16503;DHT22;53067;48.114;11.694;2022-07-24T13:34:34;34.10;31.60
16503;DHT22;53067;48.114;11.694;2022-07-24T13:37:02;33.90;32.00
16503;DHT22;53067;48.114;11.694;2022-07-24T13:39:31;33.80;32.20
16503;DHT22;53067;48.114;11.694;2022-07-24T13:41:58;33.80;32.10
16503;DHT22;53067;48.114;11.694;2022-07-24T13:44:26;33.80;31.60
16503;DHT22;53067;48.114;11.694;2022-07-24T13:46:54;33.90;31.70
16503;DHT22;53067;48.114;11.694;2022-07-24T13:49:21;33.90;31.40
16503;DHT22;53067;48.114;11.694;2022-07-24T13:51:49;34.00;31.40
16503;DHT22;53067;48.114;11.694;2022-07-24T13:54:17;34.10;31.40
16503;DHT22;53067;48.114;11.694;2022-07-24T13:56:44;34.30;30.80
16503;DHT22;53067;48.114;11.694;2022-07-24T13:59:12;34.40;30.80
16503;DHT22;53067;48.114;11.694;2022-07-24T14:01:40;34.50;31.00
16503;DHT22;53067;48.114;11.694;2022-07-24T14:04:16;34.70;29.90
16503;DHT22;53067;48.114;11.694;2022-07-24T14:06:43;34.80;30.00
16503;DHT22;53067;48.114;11.694;2022-07-24T14:09:11;34.90;29.60
16503;DHT22;53067;48.114;11.694;2022-07-24T14:11:58;35.10;29.90
16503;DHT22;53067;48.114;11.694;2022-07-24T14:14:26;35.40;29.30
16503;DHT22;53067;48.114;11.694;2022-07-24T14:16:59;35.50;29.10
16503;DHT22;53067;48.114;11.694;2022-07-24T14:19:27;35.60;28.90
16503;DHT22;53067;48.114;11.694;2022-07-24T14:21:54;35.80;28.70
16503;DHT22;53067;48.114;11.694;2022-07-24T14:24:22;35.90;28.40
16503;DHT22;53067;48.114;11.694;2022-07-24T14:26:49;35.80;28.80
16503;DHT22;53067;48.114;11.694;2022-07-24T14:29:17;35.70;29.00
16503;DHT22;53067;48.114;11.694;2022-07-24T14:31:45;35.70;28.70
16503;DHT22;53067;48.114;11.694;2022-07-24T14:34:13;35.90;28.70
16503;DHT22;53067;48.114;11.694;2022-07-24T14:36:41;36.10;28.30
16503;DHT22;53067;48.114;11.694;2022-07-24T14:39:09;36.30;28.60
16503;DHT22;53067;48.114;11.694;2022-07-24T14:41:36;36.60;27.90
16503;DHT22;53067;48.114;11.694;2022-07-24T14:44:05;36.50;27.80
16503;DHT22;53067;48.114;11.694;2022-07-24T14:46:33;36.50;28.00
16503;DHT22;53067;48.114;11.694;2022-07-24T14:49:01;36.60;28.10
16503;DHT22;53067;48.114;11.694;2022-07-24T14:51:40;36.90;27.70
16503;DHT22;53067;48.114;11.694;2022-07-24T14:54:08;36.80;27.30
16503;DHT22;53067;48.114;11.694;2022-07-24T14:56:36;36.50;27.70
16503;DHT22;53067;48.114;11.694;2022-07-24T14:59:24;36.20;27.60
16503;DHT22;53067;48.114;11.694;2022-07-24T15:01:52;35.80;28.10
16503;DHT22;53067;48.114;11.694;2022-07-24T15:04:19;35.40;28.40
16503;DHT22;53067;48.114;11.694;2022-07-24T15:06:47;35.20;29.30
16503;DHT22;53067;48.114;11.694;2022-07-24T15:09:14;35.10;29.10
16503;DHT22;53067;48.114;11.694;2022-07-24T15:11:42;34.90;29.10
16503;DHT22;53067;48.114;11.694;2022-07-24T15:14:09;34.70;29.40
16503;DHT22;53067;48.114;11.694;2022-07-24T15:16:37;34.50;29.60
16503;DHT22;53067;48.114;11.694;2022-07-24T15:19:05;34.20;29.80
16503;DHT22;53067;48.114;11.694;2022-07-24T15:21:33;34.10;30.50
16503;DHT22;53067;48.114;11.694;2022-07-24T15:24:01;34.00;30.20
16503;DHT22;53067;48.114;11.694;2022-07-24T15:26:28;33.80;30.30
16503;DHT22;53067;48.114;11.694;2022-07-24T15:28:56;33.70;30.40
16503;DHT22;53067;48.114;11.694;2022-07-24T15:31:23;33.60;30.40
16503;DHT22;53067;48.114;11.694;2022-07-24T15:33:51;33.50;31.10
16503;DHT22;53067;48.114;11.694;2022-07-24T15:36:18;33.50;30.90
16503;DHT22;53067;48.114;11.694;2022-07-24T15:38:46;33.60;30.80
16503;DHT22;53067;48.114;11.694;2022-07-24T15:41:14;33.50;30.90
16503;DHT22;53067;48.114;11.694;2022-07-24T15:43:41;33.50;31.20
16503;DHT22;53067;48.114;11.694;2022-07-24T15:46:09;33.40;31.00
16503;DHT22;53067;48.114;11.694;2022-07-24T15:48:36;33.40;31.10
16503;DHT22;53067;48.114;11.694;2022-07-24T15:51:04;33.50;31.00
16503;DHT22;53067;48.114;11.694;2022-07-24T15:53:31;33.50;31.10
16503;DHT22;53067;48.114;11.694;2022-07-24T15:55:59;33.50;31.00
16503;DHT22;53067;48.114;11.694;2022-07-24T15:58:27;33.50;31.00
16503;DHT22;53067;48.114;11.694;2022-07-24T16:00:54;33.50;30.90
16503;DHT22;53067;48.114;11.694;2022-07-24T16:03:22;33.50;31.40
16503;DHT22;53067;48.114;11.694;2022-07-24T16:05:49;33.40;31.10